createdAt,value
2022-07-26T00:22:19.344Z,1016.64
2022-07-26T00:51:22.290Z,1016.73
2022-07-26T01:20:25.215Z,1016.85
2022-07-26T01:49:25.437Z,1017.23
2022-07-26T02:18:28.247Z,1017.24
2022-07-26T02:47:31.090Z,1017.19
2022-07-26T03:16:32.001Z,1017.3
2022-07-26T03:45:26.140Z,1017.35
2022-07-26T04:14:25.923Z,1017.47
2022-07-26T04:43:25.999Z,1017.61
2022-07-26T05:12:22.138Z,1017.66
2022-07-26T05:41:19.411Z,1017.94
2022-07-26T06:10:17.206Z,1017.96
2022-07-26T06:39:11.486Z,1018.11
2022-07-26T07:07:58.968Z,1018
2022-07-26T07:36:48.011Z,1018.04
2022-07-26T08:05:41.369Z,1017.98
2022-07-26T08:34:12.817Z,1018.02
2022-07-26T09:02:54.699Z,1018.11
2022-07-26T09:31:32.377Z,1018.15
2022-07-26T10:00:08.104Z,1018.07
2022-07-26T10:28:33.676Z,1018.19
2022-07-26T10:57:08.879Z,1018.07
2022-07-26T11:25:48.752Z,1017.96
2022-07-26T11:54:22.798Z,1017.77
2022-07-26T12:22:55.260Z,1017.64
2022-07-26T12:51:38.345Z,1017.51
2022-07-26T13:20:24.177Z,1017.38
2022-07-26T13:49:02.650Z,1017.03
2022-07-26T14:17:25.032Z,1016.96
2022-07-26T14:45:55.711Z,1016.93
2022-07-26T15:14:26.054Z,1016.79
2022-07-26T15:42:53.176Z,1016.59
2022-07-26T16:11:15.951Z,1016.51
2022-07-26T16:39:42.818Z,1016.35
2022-07-26T17:08:19.149Z,1016.28
2022-07-26T17:36:52.889Z,1016.16
2022-07-26T18:05:20.971Z,1016.22
2022-07-26T18:33:55.402Z,1016.13
2022-07-26T19:02:24.967Z,1016.26
2022-07-26T19:31:00.837Z,1016.74
2022-07-26T19:59:41.771Z,1017.07
2022-07-26T20:28:27.428Z,1017.27
2022-07-26T20:57:06.538Z,1017.25
2022-07-26T21:25:47.748Z,1017.41
2022-07-26T21:54:33.707Z,1017.43
2022-07-26T22:23:14.851Z,1017.55
2022-07-26T22:52:08.390Z,1017.47
2022-07-26T23:20:37.143Z,1017.5
2022-07-26T23:49:28.766Z,1017.43
